Ocean Beaut — WDD7485 — position and weather

sailwx.info

Track history (hours):
 
Tides and Currents Weather Stations Pressure Air Temp Water Temp Dewpoint Dewpoint Depression Visibility Wind Speed Wind Dir Waves Ship Positions

Ocean Beaut

Owner: John Moreland Fishing Inc., Astoria, OR. More information available from US FCC via Universal Licensing System.

Last reported at 2016-Oct-01 14:33 UTC. Time now 2016-Oct-01 15:32 UTC.
Position N 46°12' W 123°48'.

Length 20 m.

Type: Fishing. MMSI: 367187080.

Date/timePositionNaut miles runAvg speedWind from/ knotsBaromVisibWave heightAir tempDewpointWater temp
2016-Oct-01 14:33N 46°12' W 123°48'0 0.0
2016-Oct-01 13:33N 46°12' W 123°48'0 0.0
2016-Oct-01 04:30N 46°12' W 123°48'0 0.0
2016-Oct-01 03:33N 46°12' W 123°48'0 0.0
2016-Oct-01 00:33N 46°12' W 123°48'0 0.0
2016-Sep-30 22:33N 46°12' W 123°48'0 0.0
2016-Sep-30 20:33N 46°12' W 123°48'0 0.0
2016-Sep-30 17:33N 46°12' W 123°48'0 0.0
2016-Sep-30 16:30N 46°12' W 123°48'0 0.0
2016-Sep-30 14:33N 46°12' W 123°48'0 0.0
2016-Sep-30 13:33N 46°12' W 123°48'0 0.0
2016-Sep-30 10:33N 46°12' W 123°48'0 0.0
2016-Sep-30 08:33N 46°12' W 123°48'0 0.0
2016-Sep-30 06:33N 46°12' W 123°48'0 0.0
2016-Sep-30 03:33N 46°12' W 123°48'0 0.0
2016-Sep-30 02:33N 46°12' W 123°48'0 0.0
2016-Sep-29 23:33N 46°12' W 123°48'0 0.0
2016-Sep-29 21:33N 46°12' W 123°48'0 0.0
2016-Sep-29 20:33N 46°12' W 123°48'0 0.0
2016-Sep-29 19:33N 46°12' W 123°48'0 0.0
2016-Sep-29 16:30N 46°12' W 123°48'0 0.0
2016-Sep-29 15:33N 46°12' W 123°48'0 0.0
2016-Sep-29 14:33N 46°12' W 123°48'0 0.0
2016-Sep-29 13:30N 46°12' W 123°48'0 0.0
2016-Sep-29 08:33N 46°12' W 123°48'0 0.0
2016-Sep-29 07:30N 46°12' W 123°48'0 0.0
2016-Sep-29 00:34N 46°12' W 123°48'0 0.0
2016-Sep-28 21:33N 46°12' W 123°48'0 0.0
2016-Sep-28 19:31N 46°12' W 123°48'0 0.0
2016-Sep-28 16:34N 46°12' W 123°48'2 2.3
2016-Sep-28 15:32N 46°11' W 123°51'0 0.0
2016-Sep-28 12:32N 46°11' W 123°51'2 0.6
2016-Sep-28 08:32N 46°12' W 123°48'0 0.0
2016-Sep-28 03:32N 46°12' W 123°48'0 0.0
2016-Sep-28 02:32N 46°12' W 123°48'0 0.0
2016-Sep-28 01:32N 46°12' W 123°48'0 0.0
2016-Sep-27 23:32N 46°12' W 123°48'0 0.0
2016-Sep-27 19:32N 46°12' W 123°48'20 4.0
2016-Sep-27 14:33N 46°20' W 124°15'6 6.3
2016-Sep-27 13:34N 46°24' W 124°21'4 1.2
2016-Sep-27 10:33N 46°26' W 124°17'20 2.0
2016-Sep-27 00:32N 46°06' W 124°19'13 3.2
2016-Sep-26 20:33N 46°19' W 124°20'2 1.8
2016-Sep-26 19:33N 46°20' W 124°21'4 1.1
2016-Sep-26 15:33N 46°24' W 124°25'5 2.4
2016-Sep-26 13:33N 46°20' W 124°21'2 0.9
2016-Sep-26 11:32N 46°18' W 124°21'3 1.1
2016-Sep-26 08:33N 46°15' W 124°20'19 3.1
2016-Sep-26 02:33N 45°57' W 124°14'3 2.6
2016-Sep-26 01:32N 45°54' W 124°14'3 2.7
2016-Sep-26 00:33N 45°52' W 124°15'22 7.4
2016-Sep-25 21:33N 45°49' W 124°47'6 1.4
2016-Sep-25 17:33N 45°55' W 124°49'2 2.2
2016-Sep-25 16:33N 45°57' W 124°50'2 2.2
2016-Sep-25 15:33N 45°59' W 124°51'2 2.1
2016-Sep-25 14:33N 46°01' W 124°51'1 0.5
2016-Sep-25 12:33N 46°02' W 124°51'2 2.2
2016-Sep-25 11:33N 45°60' W 124°50'2 2.1
2016-Sep-25 10:33N 45°58' W 124°49'2 2.1
2016-Sep-25 09:34N 45°56' W 124°47'4 2.1
2016-Sep-25 07:33N 45°52' W 124°47'11 3.5
2016-Sep-25 04:33N 45°57' W 124°33'29 7.3
2016-Sep-25 00:34N 46°15' W 123°60'7 3.4
2016-Sep-24 22:32N 46°11' W 123°51'2 2.4
2016-Sep-24 21:32N 46°12' W 123°48'0 0.0
2016-Sep-24 19:32N 46°12' W 123°48'0 0.0
2016-Sep-24 18:32N 46°12' W 123°48'0 0.0
2016-Sep-24 17:32N 46°12' W 123°48'0 0.0
2016-Sep-24 16:32N 46°12' W 123°48'0 0.0
2016-Sep-24 14:32N 46°12' W 123°48'0 0.0
2016-Sep-24 12:32N 46°12' W 123°48'0 0.0
2016-Sep-24 10:32N 46°12' W 123°48'0 0.0
2016-Sep-24 09:32N 46°12' W 123°48'0 0.0
2016-Sep-24 03:32N 46°12' W 123°48'0 0.0
2016-Sep-24 02:32N 46°12' W 123°48'0 0.0
2016-Sep-24 01:32N 46°12' W 123°48'0 0.0
2016-Sep-24 00:32N 46°12' W 123°48'0 0.0
2016-Sep-23 19:32N 46°12' W 123°48'0 0.0
2016-Sep-23 17:32N 46°12' W 123°48'0 0.0
2016-Sep-23 16:32N 46°12' W 123°48'0 0.0
2016-Sep-23 15:32N 46°12' W 123°48'0 0.0
2016-Sep-23 13:32N 46°12' W 123°48'0 0.0
2016-Sep-23 09:32N 46°12' W 123°48'0 0.0
2016-Sep-23 06:32N 46°12' W 123°48'0 0.0
2016-Sep-23 04:32N 46°12' W 123°48'0 0.0
2016-Sep-23 03:32N 46°12' W 123°48'0 0.0
2016-Sep-23 02:32N 46°12' W 123°48'0 0.0
2016-Sep-23 01:33N 46°12' W 123°48'0 0.0
2016-Sep-23 00:33N 46°12' W 123°48'0 0.0
2016-Sep-22 23:32N 46°12' W 123°48'0 0.0
2016-Sep-22 20:33N 46°12' W 123°48'2 0.3
2016-Sep-22 12:32N 46°11' W 123°51'0 0.0
2016-Sep-22 04:32N 46°11' W 123°51'0 0.0
2016-Sep-22 03:32N 46°11' W 123°51'1 0.3
2016-Sep-22 00:33N 46°11' W 123°53'7 6.7
2016-Sep-21 23:33N 46°15' W 124°01'8 7.8
2016-Sep-21 22:33N 46°15' W 124°12'12 3.9
2016-Sep-21 19:34N 46°23' W 124°25'5 1.7
2016-Sep-21 16:33N 46°28' W 124°25'  
Track history (hours):
 
Tides and Currents Weather Stations Pressure Air Temp Water Temp Dewpoint Dewpoint Depression Visibility Wind Speed Wind Dir Waves Ship Positions

Ocean Beaut

Owner: John Moreland Fishing Inc., Astoria, OR. More information available from US FCC via Universal Licensing System.

Last reported at 2016-Oct-01 14:33 UTC. Time now 2016-Oct-01 15:32 UTC.
Position N 46°12' W 123°48'.

Length 20 m.

Type: Fishing. MMSI: 367187080.

Date/timePositionNaut miles runAvg speedWind from/ knotsBaromVisibWave heightAir tempDewpointWater temp
2016-Oct-01 14:33N 46°12' W 123°48'0 0.0
2016-Oct-01 13:33N 46°12' W 123°48'0 0.0
2016-Oct-01 04:30N 46°12' W 123°48'0 0.0
2016-Oct-01 03:33N 46°12' W 123°48'0 0.0
2016-Oct-01 00:33N 46°12' W 123°48'0 0.0
2016-Sep-30 22:33N 46°12' W 123°48'0 0.0
2016-Sep-30 20:33N 46°12' W 123°48'0 0.0
2016-Sep-30 17:33N 46°12' W 123°48'0 0.0
2016-Sep-30 16:30N 46°12' W 123°48'0 0.0
2016-Sep-30 14:33N 46°12' W 123°48'0 0.0
2016-Sep-30 13:33N 46°12' W 123°48'0 0.0
2016-Sep-30 10:33N 46°12' W 123°48'0 0.0
2016-Sep-30 08:33N 46°12' W 123°48'0 0.0
2016-Sep-30 06:33N 46°12' W 123°48'0 0.0
2016-Sep-30 03:33N 46°12' W 123°48'0 0.0
2016-Sep-30 02:33N 46°12' W 123°48'0 0.0
2016-Sep-29 23:33N 46°12' W 123°48'0 0.0
2016-Sep-29 21:33N 46°12' W 123°48'0 0.0
2016-Sep-29 20:33N 46°12' W 123°48'0 0.0
2016-Sep-29 19:33N 46°12' W 123°48'0 0.0
2016-Sep-29 16:30N 46°12' W 123°48'0 0.0
2016-Sep-29 15:33N 46°12' W 123°48'0 0.0
2016-Sep-29 14:33N 46°12' W 123°48'0 0.0
2016-Sep-29 13:30N 46°12' W 123°48'0 0.0
2016-Sep-29 08:33N 46°12' W 123°48'0 0.0
2016-Sep-29 07:30N 46°12' W 123°48'0 0.0
2016-Sep-29 00:34N 46°12' W 123°48'0 0.0
2016-Sep-28 21:33N 46°12' W 123°48'0 0.0
2016-Sep-28 19:31N 46°12' W 123°48'0 0.0
2016-Sep-28 16:34N 46°12' W 123°48'2 2.3
2016-Sep-28 15:32N 46°11' W 123°51'0 0.0
2016-Sep-28 12:32N 46°11' W 123°51'2 0.6
2016-Sep-28 08:32N 46°12' W 123°48'0 0.0
2016-Sep-28 03:32N 46°12' W 123°48'0 0.0
2016-Sep-28 02:32N 46°12' W 123°48'0 0.0
2016-Sep-28 01:32N 46°12' W 123°48'0 0.0
2016-Sep-27 23:32N 46°12' W 123°48'0 0.0
2016-Sep-27 19:32N 46°12' W 123°48'20 4.0
2016-Sep-27 14:33N 46°20' W 124°15'6 6.3
2016-Sep-27 13:34N 46°24' W 124°21'4 1.2
2016-Sep-27 10:33N 46°26' W 124°17'20 2.0
2016-Sep-27 00:32N 46°06' W 124°19'13 3.2
2016-Sep-26 20:33N 46°19' W 124°20'2 1.8
2016-Sep-26 19:33N 46°20' W 124°21'4 1.1
2016-Sep-26 15:33N 46°24' W 124°25'5 2.4
2016-Sep-26 13:33N 46°20' W 124°21'2 0.9
2016-Sep-26 11:32N 46°18' W 124°21'3 1.1
2016-Sep-26 08:33N 46°15' W 124°20'19 3.1
2016-Sep-26 02:33N 45°57' W 124°14'3 2.6
2016-Sep-26 01:32N 45°54' W 124°14'3 2.7
2016-Sep-26 00:33N 45°52' W 124°15'22 7.4
2016-Sep-25 21:33N 45°49' W 124°47'6 1.4
2016-Sep-25 17:33N 45°55' W 124°49'2 2.2
2016-Sep-25 16:33N 45°57' W 124°50'2 2.2
2016-Sep-25 15:33N 45°59' W 124°51'2 2.1
2016-Sep-25 14:33N 46°01' W 124°51'1 0.5
2016-Sep-25 12:33N 46°02' W 124°51'2 2.2
2016-Sep-25 11:33N 45°60' W 124°50'2 2.1
2016-Sep-25 10:33N 45°58' W 124°49'2 2.1
2016-Sep-25 09:34N 45°56' W 124°47'4 2.1
2016-Sep-25 07:33N 45°52' W 124°47'11 3.5
2016-Sep-25 04:33N 45°57' W 124°33'29 7.3
2016-Sep-25 00:34N 46°15' W 123°60'7 3.4
2016-Sep-24 22:32N 46°11' W 123°51'2 2.4
2016-Sep-24 21:32N 46°12' W 123°48'0 0.0
2016-Sep-24 19:32N 46°12' W 123°48'0 0.0
2016-Sep-24 18:32N 46°12' W 123°48'0 0.0
2016-Sep-24 17:32N 46°12' W 123°48'0 0.0
2016-Sep-24 16:32N 46°12' W 123°48'0 0.0
2016-Sep-24 14:32N 46°12' W 123°48'0 0.0
2016-Sep-24 12:32N 46°12' W 123°48'0 0.0
2016-Sep-24 10:32N 46°12' W 123°48'0 0.0
2016-Sep-24 09:32N 46°12' W 123°48'0 0.0
2016-Sep-24 03:32N 46°12' W 123°48'0 0.0
2016-Sep-24 02:32N 46°12' W 123°48'0 0.0
2016-Sep-24 01:32N 46°12' W 123°48'0 0.0
2016-Sep-24 00:32N 46°12' W 123°48'0 0.0
2016-Sep-23 19:32N 46°12' W 123°48'0 0.0
2016-Sep-23 17:32N 46°12' W 123°48'0 0.0
2016-Sep-23 16:32N 46°12' W 123°48'0 0.0
2016-Sep-23 15:32N 46°12' W 123°48'0 0.0
2016-Sep-23 13:32N 46°12' W 123°48'0 0.0
2016-Sep-23 09:32N 46°12' W 123°48'0 0.0
2016-Sep-23 06:32N 46°12' W 123°48'0 0.0
2016-Sep-23 04:32N 46°12' W 123°48'0 0.0
2016-Sep-23 03:32N 46°12' W 123°48'0 0.0
2016-Sep-23 02:32N 46°12' W 123°48'0 0.0
2016-Sep-23 01:33N 46°12' W 123°48'0 0.0
2016-Sep-23 00:33N 46°12' W 123°48'0 0.0
2016-Sep-22 23:32N 46°12' W 123°48'0 0.0
2016-Sep-22 20:33N 46°12' W 123°48'2 0.3
2016-Sep-22 12:32N 46°11' W 123°51'0 0.0
2016-Sep-22 04:32N 46°11' W 123°51'0 0.0
2016-Sep-22 03:32N 46°11' W 123°51'1 0.3
2016-Sep-22 00:33N 46°11' W 123°53'7 6.7
2016-Sep-21 23:33N 46°15' W 124°01'8 7.8
2016-Sep-21 22:33N 46°15' W 124°12'12 3.9
2016-Sep-21 19:34N 46°23' W 124°25'5 1.7
2016-Sep-21 16:33N 46°28' W 124°25'  

Dump ship's entire track history